Storden, MN (56174)

6:13 AM CST on November 27, 2014 (GMT -0600)
Sorenson Seed | Change Station
CLOSE
Current Station
Personal Weather Station
Location: Storden, MN
Elevation: 1404 ft
Nearby Weather Stations

Elev 1404 ft 44.04 °N, 95.33 °W | Updated 3 minutes ago

Partly Cloudy
Partly Cloudy
-7.8 °F
Feels Like -21 °F
N
6.0
Wind Variable Wind from NNW
Gusts 7.0 mph

Today
High -- | Low -- °F
--% Chance of Precip.
Yesterday
High -- | Low -- °F
Precip. -- in
7:31 AM 4:46 PM
Waxing Crescent, 29% visible
Pressure 30.48 in
Visibility 7.0 miles
Clouds Scattered Clouds 200 ft
Windchill -21 °F
Dew Point -11 °F
Humidity 85%
Rainfall 0.00 in
Snow Depth Not available.
UV 0 out of 12
Pollen .10 out of 12
Air Quality Not available.
Flu Activity Not available.
METAR KMWM 271153Z AUTO 30006KT 7SM -SN SCT002 M22/M24 A3048 RMK AO2

More Conditions Fewer Conditions

Pressure 30.48 in
Visibility 7.0 miles
Clouds Scattered Clouds 200 ft
Windchill -21 °F
Dew Point -11 °F
Humidity 85%
Rainfall 0.00 in
Snow Depth Not available.
UV 0 out of 12
Pollen .10 out of 12
Air Quality Not available.
Flu Activity Not available.
METAR KMWM 271153Z AUTO 30006KT 7SM -SN SCT002 M22/M24 A3048 RMK AO2

More Conditions Fewer Conditions

10-Day Weather Forecast

Almanac

Astronomy

Nov. 27, 2014 Rise Set
Actual Time
Civil Twilight
Nautical Twilight
Astronomical Twilight
Moon
Length of Visible Light
Length of Day
Tomorrow will be .
, % of the Moon is Illuminated

Today's Extremes

State Highs State Lows

Community

WunderPhotos

Upload Photos

1,773,975 photos uploaded!

WunderBlogs® & News

Nearby

Air Quality

  Air Quality AQ Index Pollutant
Not available.

Snow Depth

Station Depth Elevation

Earthquake Activity

City Distance Mag. Time & Date
Minimum magnitude displayed is 2.5.

Coastal Water Temperatures

Place Temperature

Nearby Weather Stations